Time;durP1;ratioP1;P1;durP2;ratioP2;P2;SDS_P1;SDS_P2;PMS_P1;PMS_P2;Temp;Humidity;BMP_temperature;BMP_pressure;BME280_temperature;BME280_humidity;BME280_pressure;Samples;Min_cycle;Max_cycle;Signal;HPM_P1;HPM_P2
2021/10/21 00:00:25;;;;;;;10.48;7.58;;;;;;;14.13;61.10;99027.88;2095566;83;21021;-76
2021/10/21 00:03:28;;;;;;;12.07;7.50;;;;;;;14.10;61.18;99026.98;2102745;83;21040;-81
2021/10/21 00:06:30;;;;;;;11.15;8.15;;;;;;;14.06;61.18;99025.27;2099209;83;21561;-77
2021/10/21 00:09:32;;;;;;;19.82;7.45;;;;;;;14.04;61.29;99027.86;2096319;83;21058;-77
2021/10/21 00:12:33;;;;;;;10.43;7.50;;;;;;;14.01;61.45;99021.09;2097943;83;21536;-78
2021/10/21 00:15:35;;;;;;;8.15;7.30;;;;;;;13.96;61.51;99021.44;2095490;83;21087;-77
2021/10/21 00:18:37;;;;;;;10.78;7.17;;;;;;;13.91;61.61;99007.44;2101966;83;21023;-77
2021/10/21 00:21:38;;;;;;;14.10;7.95;;;;;;;13.84;61.71;99007.47;2091161;83;21085;-77
2021/10/21 00:24:40;;;;;;;13.75;8.35;;;;;;;13.76;61.90;99010.38;2099770;83;21059;-78
2021/10/21 00:27:42;;;;;;;11.48;7.72;;;;;;;13.66;62.17;99005.53;2100053;83;20983;-77
2021/10/21 00:30:43;;;;;;;13.22;8.15;;;;;;;13.51;62.40;98996.98;2097522;83;21532;-77
2021/10/21 00:33:45;;;;;;;11.80;7.35;;;;;;;13.41;62.55;98981.47;2096711;83;21021;-77
2021/10/21 00:36:47;;;;;;;13.72;7.67;;;;;;;13.30;62.83;98978.66;2098295;83;21009;-77
2021/10/21 00:39:48;;;;;;;12.47;7.22;;;;;;;13.21;63.34;98963.41;2102461;83;20986;-76
2021/10/21 00:42:50;;;;;;;13.60;7.97;;;;;;;13.13;63.41;98963.13;2099829;83;21053;-77
2021/10/21 00:45:52;;;;;;;12.33;7.62;;;;;;;13.07;63.52;98956.50;2099127;83;21597;-77
2021/10/21 00:48:53;;;;;;;11.22;7.87;;;;;;;13.03;63.65;98952.61;2098071;83;21109;-77
2021/10/21 00:51:55;;;;;;;15.45;8.50;;;;;;;12.98;63.67;98960.73;2097339;83;21006;-76
2021/10/21 00:54:57;;;;;;;14.87;7.97;;;;;;;12.94;63.90;98957.36;2095716;83;21042;-77
2021/10/21 00:58:00;;;;;;;10.53;7.15;;;;;;;12.90;64.26;98953.50;2100605;83;21025;-79
2021/10/21 01:01:02;;;;;;;15.78;9.35;;;;;;;12.87;64.51;98941.94;2078433;83;21057;-78
2021/10/21 01:04:04;;;;;;;11.08;8.13;;;;;;;12.86;64.73;98933.63;2096168;83;21057;-77
2021/10/21 01:07:07;;;;;;;13.83;9.30;;;;;;;12.84;64.64;98929.02;2100520;83;22353;-77
2021/10/21 01:10:10;;;;;;;13.35;9.40;;;;;;;12.83;64.74;98924.73;2102959;83;21640;-77
2021/10/21 01:13:11;;;;;;;14.83;8.88;;;;;;;12.80;64.79;98923.31;2102115;83;20993;-77
2021/10/21 01:16:16;;;;;;;10.85;8.33;;;;;;;12.76;64.79;98924.25;2100144;83;21594;-77
2021/10/21 01:19:21;;;;;;;9.70;7.85;;;;;;;12.75;64.82;98921.78;2103125;83;21073;-78
2021/10/21 01:22:22;;;;;;;12.75;8.93;;;;;;;12.73;65.02;98906.56;2101158;83;21535;-78
2021/10/21 01:25:25;;;;;;;16.75;9.13;;;;;;;12.73;65.13;98910.55;2086838;84;22177;-76
2021/10/21 01:28:27;;;;;;;13.25;8.30;;;;;;;12.73;65.12;98926.52;2087492;84;20989;-78
2021/10/21 01:31:28;;;;;;;12.25;8.63;;;;;;;12.70;65.12;98928.27;2089762;84;21000;-77
2021/10/21 01:34:30;;;;;;;16.85;8.95;;;;;;;12.64;65.23;98926.42;2090606;84;21010;-77
2021/10/21 01:37:32;;;;;;;14.58;9.48;;;;;;;12.63;65.33;98913.64;2096324;83;20947;-77
2021/10/21 01:40:34;;;;;;;9.88;8.08;;;;;;;12.62;65.33;98915.19;2058019;85;21100;-78
2021/10/21 01:43:41;;;;;;;13.13;9.03;;;;;;;12.61;65.51;98900.23;2100055;83;21583;-77
2021/10/21 01:46:43;;;;;;;11.12;8.55;;;;;;;12.61;65.96;98878.95;2087936;84;21506;-78
2021/10/21 01:49:45;;;;;;;14.85;8.80;;;;;;;12.62;65.79;98875.28;2091896;83;21108;-78
2021/10/21 01:52:50;;;;;;;11.53;8.95;;;;;;;12.62;65.67;98865.44;2054533;84;20993;-81
2021/10/21 01:55:52;;;;;;;11.93;8.45;;;;;;;12.67;65.81;98864.80;2105469;83;21052;-78
2021/10/21 01:58:53;;;;;;;13.98;8.90;;;;;;;12.67;65.89;98860.31;2090462;84;20988;-78
2021/10/21 02:01:55;;;;;;;10.95;8.43;;;;;;;12.69;66.24;98860.09;2095114;83;21025;-77
2021/10/21 02:04:57;;;;;;;13.80;8.33;;;;;;;12.71;66.23;98854.05;2088562;84;21570;-80
2021/10/21 02:07:59;;;;;;;12.90;8.63;;;;;;;12.72;66.28;98845.02;2091821;83;21115;-77
2021/10/21 02:11:00;;;;;;;8.88;7.95;;;;;;;12.73;66.05;98840.02;2100502;83;20989;-78
2021/10/21 02:14:02;;;;;;;15.03;9.35;;;;;;;12.76;66.09;98832.95;2093479;84;20965;-77
2021/10/21 02:17:03;;;;;;;12.45;9.45;;;;;;;12.75;66.21;98823.30;2088242;84;21036;-78
2021/10/21 02:20:07;;;;;;;13.13;9.33;;;;;;;12.77;66.35;98829.24;2085375;83;20970;-78
2021/10/21 02:23:09;;;;;;;12.13;8.83;;;;;;;12.77;66.08;98826.58;2054289;84;21043;-77
2021/10/21 02:26:11;;;;;;;11.08;8.53;;;;;;;12.76;66.09;98827.09;2052698;85;21038;-77
2021/10/21 02:29:12;;;;;;;13.00;8.78;;;;;;;12.77;66.07;98825.25;2073179;83;21065;-77
2021/10/21 02:32:14;;;;;;;11.43;8.30;;;;;;;12.77;66.05;98830.58;2074028;83;21073;-77
2021/10/21 02:35:16;;;;;;;10.40;7.72;;;;;;;12.80;65.98;98834.14;2070991;83;21051;-77
2021/10/21 02:38:18;;;;;;;8.80;7.50;;;;;;;12.78;65.96;98845.50;2073083;83;21464;-77
2021/10/21 02:41:20;;;;;;;11.43;7.67;;;;;;;12.75;66.08;98828.63;2070875;83;21511;-77
2021/10/21 02:44:21;;;;;;;11.35;8.05;;;;;;;12.70;66.03;98809.33;2073404;83;20972;-77
2021/10/21 02:47:23;;;;;;;10.93;8.68;;;;;;;12.60;66.07;98819.59;2068047;83;21377;-76
2021/10/21 02:50:25;;;;;;;10.90;8.35;;;;;;;12.53;66.19;98806.84;2068680;83;21066;-77
2021/10/21 02:53:26;;;;;;;9.65;8.15;;;;;;;12.44;66.40;98796.93;2074119;83;21044;-77
2021/10/21 02:56:28;;;;;;;11.25;8.08;;;;;;;12.45;66.54;98796.44;2074308;83;21041;-81
2021/10/21 02:59:30;;;;;;;10.20;7.37;;;;;;;12.45;66.73;98780.48;2095022;83;21522;-77
2021/10/21 03:02:31;;;;;;;9.40;7.50;;;;;;;12.41;66.76;98772.08;2097363;83;21056;-77
2021/10/21 03:05:33;;;;;;;10.32;7.03;;;;;;;12.39;67.01;98764.01;2103561;83;21478;-76
2021/10/21 03:08:35;;;;;;;12.88;7.15;;;;;;;12.39;67.39;98750.22;2101461;83;22460;-77
2021/10/21 03:11:36;;;;;;;11.57;8.08;;;;;;;12.37;67.49;98737.64;2099966;83;21046;-77
2021/10/21 03:14:38;;;;;;;19.02;11.55;;;;;;;12.31;67.81;98730.52;2098814;83;21025;-77
2021/10/21 03:17:41;;;;;;;16.62;10.70;;;;;;;12.27;67.64;98741.25;2099350;83;20993;-77
2021/10/21 03:20:43;;;;;;;10.43;8.25;;;;;;;12.27;67.92;98728.77;2097221;83;21096;-77
2021/10/21 03:23:44;;;;;;;13.15;7.37;;;;;;;12.25;67.80;98721.53;2102616;83;21005;-77
2021/10/21 03:26:47;;;;;;;11.15;7.75;;;;;;;12.25;68.13;98729.52;2105371;83;21466;-77
2021/10/21 03:29:49;;;;;;;11.10;7.62;;;;;;;12.32;68.26;98728.14;2104645;83;21145;-77
2021/10/21 03:32:51;;;;;;;14.38;8.33;;;;;;;12.41;68.35;98718.07;2105270;83;21021;-78
2021/10/21 03:35:52;;;;;;;15.05;8.73;;;;;;;12.49;68.38;98708.00;2102634;83;21104;-78
2021/10/21 03:38:54;;;;;;;12.45;8.65;;;;;;;12.55;68.09;98705.00;2105108;83;21059;-77
2021/10/21 03:41:56;;;;;;;12.82;7.85;;;;;;;12.59;68.09;98697.42;2096732;83;21037;-77
2021/10/21 03:44:57;;;;;;;10.88;7.35;;;;;;;12.61;68.20;98688.69;2105293;83;21007;-77
2021/10/21 03:47:59;;;;;;;13.40;7.58;;;;;;;12.64;68.08;98686.92;2106026;83;21053;-79
2021/10/21 03:51:01;;;;;;;11.75;9.28;;;;;;;12.64;68.13;98683.78;2104683;83;20991;-80
2021/10/21 03:54:02;;;;;;;14.13;8.35;;;;;;;12.64;68.03;98683.78;2105804;83;21077;-77
2021/10/21 03:57:04;;;;;;;13.03;8.65;;;;;;;12.64;68.23;98678.95;2106609;83;21016;-82
2021/10/21 04:00:08;;;;;;;11.08;8.73;;;;;;;12.61;68.37;98672.20;2102327;83;21088;-77
2021/10/21 04:03:11;;;;;;;14.93;8.00;;;;;;;12.62;68.37;98671.72;2104026;83;21106;-77
2021/10/21 04:06:13;;;;;;;10.90;8.05;;;;;;;12.62;68.49;98657.08;2084594;84;21010;-77
2021/10/21 04:09:14;;;;;;;11.25;8.65;;;;;;;12.63;68.54;98656.04;2088221;84;21026;-78
2021/10/21 04:12:16;;;;;;;12.58;8.73;;;;;;;12.63;68.63;98661.36;2087605;84;21512;-77
2021/10/21 04:15:18;;;;;;;10.45;7.72;;;;;;;12.62;68.66;98663.73;2082165;84;21001;-78
2021/10/21 04:18:20;;;;;;;13.43;8.40;;;;;;;12.63;68.61;98662.17;2098582;83;21027;-76
2021/10/21 04:21:21;;;;;;;12.50;8.55;;;;;;;12.64;68.58;98651.84;2105179;83;21057;-77
2021/10/21 04:24:23;;;;;;;11.85;7.70;;;;;;;12.66;68.59;98649.77;2075744;84;21121;-77
2021/10/21 04:27:25;;;;;;;13.30;8.68;;;;;;;12.68;68.53;98666.34;2101877;83;21129;-80
2021/10/21 04:30:26;;;;;;;14.75;9.88;;;;;;;12.66;68.74;98673.71;2102571;83;21065;-72
2021/10/21 04:33:28;;;;;;;13.38;9.25;;;;;;;12.67;68.73;98678.52;2099782;83;21030;-75
2021/10/21 04:36:30;;;;;;;10.32;8.35;;;;;;;12.70;68.94;98703.39;2100413;83;21620;-78
2021/10/21 04:39:32;;;;;;;11.50;8.65;;;;;;;12.63;69.00;98722.05;2105756;83;21041;-73
2021/10/21 04:42:33;;;;;;;12.78;8.55;;;;;;;12.64;69.17;98718.38;2102442;83;21108;-76
2021/10/21 04:45:35;;;;;;;12.78;8.88;;;;;;;12.68;69.46;98735.53;2102751;83;21021;-89
2021/10/21 04:48:36;;;;;;;17.80;9.38;;;;;;;12.69;69.78;98724.36;2096907;83;21033;-73
2021/10/21 04:51:38;;;;;;;20.25;10.90;;;;;;;12.69;69.94;98724.36;2096951;83;21002;-75
2021/10/21 04:54:39;;;;;;;16.42;10.98;;;;;;;12.69;70.22;98695.09;2101145;83;21041;-74
2021/10/21 04:57:41;;;;;;;14.53;9.95;;;;;;;12.60;70.53;98682.56;2099821;83;21678;-74
2021/10/21 05:00:43;;;;;;;17.37;10.32;;;;;;;12.51;70.82;98677.20;2103963;83;21690;-75
2021/10/21 05:03:44;;;;;;;16.42;10.45;;;;;;;12.45;71.50;98632.84;2098936;83;21117;-75
2021/10/21 05:06:46;;;;;;;14.90;10.48;;;;;;;12.40;72.14;98636.66;2102161;83;21070;-75
2021/10/21 05:09:48;;;;;;;17.82;10.72;;;;;;;12.37;72.39;98635.23;2102016;83;21043;-73
2021/10/21 05:12:49;;;;;;;21.00;11.55;;;;;;;12.32;73.20;98627.08;2102660;83;20999;-70
2021/10/21 05:15:51;;;;;;;14.47;10.40;;;;;;;12.28;73.33;98620.57;2098511;83;20981;-72
2021/10/21 05:18:52;;;;;;;16.05;10.48;;;;;;;12.24;73.76;98611.38;2101717;83;21488;-74
2021/10/21 05:21:54;;;;;;;13.78;10.32;;;;;;;12.23;73.52;98614.55;2106170;83;21104;-72
2021/10/21 05:24:56;;;;;;;16.77;10.08;;;;;;;12.28;73.57;98616.58;2103638;83;21045;-72
2021/10/21 05:27:57;;;;;;;12.07;9.13;;;;;;;12.32;73.66;98631.06;2125460;82;21377;-72
2021/10/21 05:30:59;;;;;;;12.25;9.08;;;;;;;12.42;73.84;98618.64;2122208;82;21088;-73
2021/10/21 05:34:02;;;;;;;12.68;10.03;;;;;;;12.45;73.69;98628.85;2120588;82;21040;-74
2021/10/21 05:37:05;;;;;;;18.60;10.72;;;;;;;12.49;73.82;98626.86;2120991;82;21068;-74
2021/10/21 05:40:08;;;;;;;18.98;10.53;;;;;;;12.52;73.72;98624.28;2122653;82;20976;-74
2021/10/21 05:43:10;;;;;;;15.78;10.45;;;;;;;12.49;73.68;98622.87;2122003;82;21019;-76
2021/10/21 05:46:11;;;;;;;12.13;9.78;;;;;;;12.44;73.88;98612.05;2118497;82;21618;-75
2021/10/21 05:49:13;;;;;;;15.75;10.23;;;;;;;12.37;74.26;98603.84;2120836;82;20978;-74
2021/10/21 05:52:16;;;;;;;14.75;10.03;;;;;;;12.29;74.57;98608.38;2122689;82;21028;-75
2021/10/21 05:55:17;;;;;;;13.98;9.80;;;;;;;12.23;74.86;98597.79;2124954;82;20998;-74
2021/10/21 05:58:19;;;;;;;14.87;10.32;;;;;;;12.20;74.72;98590.24;2123461;82;21327;-74
2021/10/21 06:01:21;;;;;;;13.55;10.78;;;;;;;12.19;74.93;98600.56;2124398;82;21534;-74
2021/10/21 06:04:22;;;;;;;17.45;10.80;;;;;;;12.20;75.00;98596.89;2121003;82;22419;-76
2021/10/21 06:07:24;;;;;;;14.93;11.00;;;;;;;12.19;74.98;98588.59;2120961;82;21089;-74
2021/10/21 06:10:28;;;;;;;16.48;10.85;;;;;;;12.17;75.12;98582.70;2120854;82;21330;-74
2021/10/21 06:13:33;;;;;;;13.22;11.08;;;;;;;12.15;75.09;98568.27;2119687;82;21514;-75
2021/10/21 06:16:35;;;;;;;13.30;10.95;;;;;;;12.19;75.27;98565.50;2119763;82;21008;-74
2021/10/21 06:19:36;;;;;;;14.83;10.72;;;;;;;12.19;75.30;98566.83;2120775;82;21038;-73
2021/10/21 06:22:38;;;;;;;17.20;12.00;;;;;;;12.22;75.33;98566.40;2125502;82;21071;-75
2021/10/21 06:25:40;;;;;;;16.45;12.28;;;;;;;12.26;75.39;98565.45;2088105;82;21609;-74
2021/10/21 06:28:41;;;;;;;17.10;11.10;;;;;;;12.26;75.47;98556.95;2047458;85;21061;-74
2021/10/21 06:31:43;;;;;;;13.90;11.55;;;;;;;12.27;75.55;98552.44;2088085;84;21562;-74
2021/10/21 06:34:44;;;;;;;16.10;11.38;;;;;;;12.32;75.74;98560.59;2045491;85;21037;-75
2021/10/21 06:37:47;;;;;;;15.63;10.60;;;;;;;12.32;75.62;98569.89;2086775;83;21144;-75
2021/10/21 06:40:49;;;;;;;13.93;12.07;;;;;;;12.34;75.97;98581.14;2082124;83;21676;-76
2021/10/21 06:43:51;;;;;;;18.80;12.70;;;;;;;12.38;75.99;98584.18;2046455;85;21041;-74
2021/10/21 06:46:52;;;;;;;14.93;12.30;;;;;;;12.42;75.83;98588.86;2081394;84;22679;-73
2021/10/21 06:49:54;;;;;;;16.48;12.20;;;;;;;12.45;75.75;98598.27;2082737;84;21018;-73
2021/10/21 06:52:55;;;;;;;18.70;12.50;;;;;;;12.49;76.14;98589.61;2044611;85;21033;-74
2021/10/21 06:55:57;;;;;;;15.83;13.18;;;;;;;12.52;75.48;98586.52;2081057;83;21028;-75
2021/10/21 06:58:59;;;;;;;18.02;12.45;;;;;;;12.56;75.23;98597.56;2045738;85;21571;-73
2021/10/21 07:02:00;;;;;;;16.23;12.37;;;;;;;12.62;75.41;98609.19;2083298;84;21040;-74
2021/10/21 07:05:02;;;;;;;20.25;13.68;;;;;;;12.67;75.44;98626.13;2080492;84;21115;-73
2021/10/21 07:08:04;;;;;;;18.73;12.85;;;;;;;12.70;75.04;98611.58;2082791;84;21061;-76
2021/10/21 07:11:06;;;;;;;23.75;15.20;;;;;;;12.70;75.07;98599.61;2084361;84;21072;-75
2021/10/21 07:14:07;;;;;;;22.85;16.48;;;;;;;12.73;75.00;98559.25;2047416;85;21010;-74
2021/10/21 07:17:09;;;;;;;19.90;14.95;;;;;;;12.75;74.89;98529.22;2081300;84;21036;-74
2021/10/21 07:20:14;;;;;;;27.00;17.52;;;;;;;12.73;75.25;98537.96;2047905;85;21532;-75
2021/10/21 07:23:15;;;;;;;18.85;14.07;;;;;;;12.72;74.97;98525.14;2082586;83;21056;-73
2021/10/21 07:26:16;;;;;;;23.18;15.10;;;;;;;12.73;75.13;98516.14;2123488;82;21064;-74
2021/10/21 07:29:18;;;;;;;18.87;12.88;;;;;;;12.77;74.95;98541.27;2121512;82;20982;-74
2021/10/21 07:32:20;;;;;;;19.67;13.00;;;;;;;12.84;74.89;98525.75;2123562;82;21533;-73
2021/10/21 07:35:22;;;;;;;18.40;13.70;;;;;;;12.89;74.93;98520.59;2123281;82;21019;-75
2021/10/21 07:38:27;;;;;;;17.37;13.28;;;;;;;12.92;74.99;98526.80;2122782;82;21024;-74
2021/10/21 07:41:29;;;;;;;14.07;12.58;;;;;;;12.93;75.06;98529.25;2124508;82;20954;-77
2021/10/21 07:44:34;;;;;;;15.25;12.65;;;;;;;12.92;75.11;98528.97;2121380;82;20981;-75
2021/10/21 07:47:38;;;;;;;15.88;12.13;;;;;;;12.90;74.96;98517.72;2125512;82;21073;-74
2021/10/21 07:50:39;;;;;;;14.55;11.18;;;;;;;12.91;75.00;98512.69;2120588;82;21064;-77
2021/10/21 07:53:41;;;;;;;15.25;12.18;;;;;;;12.92;75.15;98513.48;2119093;82;21044;-76
2021/10/21 07:56:42;;;;;;;17.40;10.93;;;;;;;12.91;75.39;98508.69;2125348;82;21319;-76
2021/10/21 07:59:44;;;;;;;17.15;11.88;;;;;;;12.93;75.26;98493.84;2120813;82;20972;-75
2021/10/21 08:02:45;;;;;;;17.67;12.40;;;;;;;12.98;75.01;98483.34;2122494;82;21024;-75
2021/10/21 08:05:48;;;;;;;15.88;11.83;;;;;;;13.04;75.04;98491.77;2088436;83;21044;-73
2021/10/21 08:08:49;;;;;;;18.57;10.80;;;;;;;13.05;74.91;98484.07;2119689;82;21045;-73
2021/10/21 08:11:54;;;;;;;13.35;10.25;;;;;;;13.05;74.93;98463.29;2117699;82;20999;-73
2021/10/21 08:14:55;;;;;;;11.22;10.03;;;;;;;13.09;74.97;98467.13;2111468;82;21081;-73
2021/10/21 08:17:57;;;;;;;16.00;10.60;;;;;;;13.14;74.86;98486.72;2120029;82;21007;-74
2021/10/21 08:20:59;;;;;;;11.95;10.48;;;;;;;13.21;74.82;98476.81;2113510;82;21064;-75
2021/10/21 08:24:03;;;;;;;12.80;10.90;;;;;;;13.25;74.80;98475.84;2115350;82;21038;-75
2021/10/21 08:27:05;;;;;;;15.20;11.10;;;;;;;13.28;74.61;98465.29;2117804;82;21045;-74
2021/10/21 08:30:08;;;;;;;14.15;10.05;;;;;;;13.30;74.59;98449.38;2120706;82;21036;-74
2021/10/21 08:33:13;;;;;;;19.12;8.98;;;;;;;13.36;74.54;98470.31;2122361;82;21060;-74
2021/10/21 08:36:20;;;;;;;13.40;9.23;;;;;;;13.37;74.56;98456.75;2126013;82;21104;-74
2021/10/21 08:39:21;;;;;;;15.10;9.50;;;;;;;13.42;74.58;98437.44;2120063;82;21044;-74
2021/10/21 08:42:23;;;;;;;13.00;8.83;;;;;;;13.48;74.42;98426.40;2123596;82;21009;-74
2021/10/21 08:45:27;;;;;;;13.78;9.20;;;;;;;13.54;74.25;98420.16;2120323;82;21048;-73
2021/10/21 08:48:34;;;;;;;11.57;9.60;;;;;;;13.57;74.36;98417.03;2122537;82;21907;-75
2021/10/21 08:51:35;;;;;;;11.18;8.65;;;;;;;13.60;74.35;98420.08;2124111;82;21033;-76
2021/10/21 08:54:37;;;;;;;11.65;8.25;;;;;;;13.61;74.23;98426.22;2117497;82;21032;-74
2021/10/21 08:57:39;;;;;;;11.88;8.05;;;;;;;13.62;74.12;98421.17;2123639;82;21067;-74
2021/10/21 09:00:40;;;;;;;9.18;7.70;;;;;;;13.66;73.93;98405.03;2120519;82;21007;-74
2021/10/21 09:04:13;;;;;;;12.53;8.73;;;;;;;13.67;73.87;98356.81;2122356;82;22212;-74
2021/10/21 09:10:14;;;;;;;10.23;7.08;;;;;;;13.78;73.44;98378.39;2121363;82;21543;-74
2021/10/21 09:13:31;;;;;;;9.48;6.80;;;;;;;13.85;73.11;98369.75;2118430;82;21028;-73
2021/10/21 09:16:33;;;;;;;8.78;7.10;;;;;;;13.99;72.77;98376.48;2119191;82;21010;-75
2021/10/21 09:19:36;;;;;;;13.95;7.37;;;;;;;14.05;72.44;98386.25;2120034;82;21032;-74
2021/10/21 09:22:40;;;;;;;10.25;7.28;;;;;;;14.11;72.62;98387.19;2121075;82;21045;-74
2021/10/21 09:25:43;;;;;;;7.35;6.28;;;;;;;14.15;71.82;98380.33;2101013;82;21034;-74
2021/10/21 09:28:45;;;;;;;6.87;5.65;;;;;;;14.20;71.65;98388.45;2015789;85;22493;-74
2021/10/21 09:32:09;;;;;;;8.05;5.42;;;;;;;14.28;71.88;98385.44;2087406;83;21156;-74
2021/10/21 09:35:10;;;;;;;6.95;4.90;;;;;;;14.42;71.07;98367.86;2089134;83;20971;-73
2021/10/21 09:38:18;;;;;;;6.70;4.12;;;;;;;14.70;70.57;98367.95;2083920;83;20976;-75
2021/10/21 09:41:24;;;;;;;5.97;4.72;;;;;;;14.98;69.02;98361.83;2077723;83;21089;-74
2021/10/21 09:44:28;;;;;;;10.18;4.00;;;;;;;15.19;68.91;98350.98;2085160;83;21026;-73
2021/10/21 09:47:30;;;;;;;5.22;4.50;;;;;;;15.37;67.32;98355.83;2081500;83;21122;-73
2021/10/21 09:50:46;;;;;;;12.23;4.78;;;;;;;15.46;67.98;98353.07;2078778;83;21497;-73
2021/10/21 09:53:47;;;;;;;5.03;4.20;;;;;;;15.50;67.93;98354.73;2086579;83;21025;-73
2021/10/21 09:57:07;;;;;;;9.00;4.45;;;;;;;15.55;66.74;98348.14;2093207;83;21609;-74
2021/10/21 10:00:15;;;;;;;7.47;4.37;;;;;;;15.58;67.05;98360.48;2081736;83;21592;-75
2021/10/21 10:03:22;;;;;;;4.60;4.00;;;;;;;15.66;66.46;98363.30;2080472;83;21032;-74
2021/10/21 10:06:23;;;;;;;;;;;;;;;15.77;66.62;98357.59;2061529;83;21029;-74
2021/10/21 10:09:33;;;;;;;6.00;4.40;;;;;;;15.89;65.81;98363.69;2081338;83;20190;-74
2021/10/21 10:12:35;;;;;;;6.90;3.90;;;;;;;16.01;65.26;98356.91;2090459;83;21035;-75
2021/10/21 10:15:38;;;;;;;11.55;3.75;;;;;;;16.07;65.11;98345.22;2082056;83;21068;-74
2021/10/21 10:18:48;;;;;;;7.70;4.10;;;;;;;16.12;64.74;98342.62;2089216;83;21573;-74
2021/10/21 10:21:58;;;;;;;6.20;3.60;;;;;;;16.20;64.47;98336.05;2087892;83;21530;-74
2021/10/21 10:25:00;;;;;;;7.15;3.12;;;;;;;16.21;62.99;98333.65;2096550;83;21112;-74
2021/10/21 10:28:04;;;;;;;7.30;3.15;;;;;;;16.24;62.55;98334.48;2096158;82;21069;-73
2021/10/21 10:31:06;;;;;;;6.25;3.00;;;;;;;16.36;61.41;98332.53;2121571;82;21025;-73
2021/10/21 10:34:09;;;;;;;11.78;3.25;;;;;;;16.54;60.22;98344.27;2122407;82;21021;-73
2021/10/21 10:37:19;;;;;;;10.25;2.67;;;;;;;16.70;58.48;98334.56;2093164;82;21029;-74
2021/10/21 10:40:46;;;;;;;5.62;2.72;;;;;;;16.86;57.34;98332.87;2077446;84;21464;-76
2021/10/21 10:43:48;;;;;;;10.03;2.52;;;;;;;17.00;58.39;98303.83;2098137;83;21033;-73
2021/10/21 10:46:53;;;;;;;5.42;2.45;;;;;;;17.08;56.39;98314.09;2086866;83;21589;-76
2021/10/21 11:16:57;;;;;;;10.78;2.10;;;;;;;18.29;51.61;98356.13;2087734;83;21097;-79
2021/10/21 11:19:59;;;;;;;14.07;1.80;;;;;;;18.08;49.43;98382.84;2122076;82;21064;-76
2021/10/21 11:23:30;;;;;;;9.05;1.40;;;;;;;17.91;47.43;98372.25;2122096;82;21044;-76
2021/10/21 11:26:33;;;;;;;12.60;1.90;;;;;;;17.79;45.64;98375.63;2106189;82;21061;-77
2021/10/21 11:29:34;;;;;;;10.23;1.55;;;;;;;17.96;45.83;98377.36;2077502;84;21045;-77
2021/10/21 11:32:39;;;;;;;9.10;1.35;;;;;;;17.94;43.17;98403.67;2081327;84;21045;-74
2021/10/21 17:50:51;;;;;;;5.70;2.50;;;;;;;10.89;54.74;99055.16;2153951;80;21082;-73
